Time,TemperatureF,DewpointF,PressureIn,WindDirection,WindDirectionDegrees,WindSpeedMPH,WindSpeedGustMPH,Humidity,HourlyPrecipIn,Conditions,Clouds,dailyrainin,SoftwareType,DateUTC
2013-08-30 00:12:00,64.3,61.0,29.96,SSW,201,14.0,18.0,88,0.00,,,0.00,weatherlink.com 1.10,2013-08-30 04:12:00,
2013-08-30 00:27:00,64.4,61.0,29.96,ESE,120,9.0,18.0,87,0.00,,,0.00,weatherlink.com 1.10,2013-08-30 04:27:00,
2013-08-30 00:42:00,64.6,61.0,29.95,SE,132,12.0,18.0,87,0.00,,,0.00,weatherlink.com 1.10,2013-08-30 04:42:00,
2013-08-30 00:58:00,-999.0,-99.9,29.95,North,-999,-999.0,-999.0,-999,0.00,,,0.00,weatherlink.com 1.10,2013-08-30 04:58:00,
2013-08-30 01:13:00,64.8,61.0,29.95,SE,140,10.0,17.0,86,0.00,,,0.00,weatherlink.com 1.10,2013-08-30 05:13:00,
2013-08-30 01:28:00,64.7,60.0,29.95,SE,131,15.0,20.0,84,0.00,,,0.00,weatherlink.com 1.10,2013-08-30 05:28:00,
2013-08-30 01:43:00,65.0,60.0,29.95,SE,131,12.0,18.0,84,0.00,,,0.00,weatherlink.com 1.10,2013-08-30 05:43:00,
2013-08-30 01:58:00,65.0,60.0,29.95,SSW,200,8.0,14.0,85,0.00,,,0.00,weatherlink.com 1.10,2013-08-30 05:58:00,
2013-08-30 02:13:00,64.8,60.0,29.94,SSW,201,12.0,15.0,84,0.00,,,0.00,weatherlink.com 1.10,2013-08-30 06:13:00,
2013-08-30 02:28:00,64.9,61.0,29.94,South,186,9.0,12.0,87,0.00,,,0.00,weatherlink.com 1.10,2013-08-30 06:28:00,
2013-08-30 02:43:00,64.7,60.0,29.94,SW,215,13.0,14.0,85,0.00,,,0.00,weatherlink.com 1.10,2013-08-30 06:43:00,
2013-08-30 02:58:00,64.9,61.0,29.93,South,187,14.0,16.0,86,0.00,,,0.00,weatherlink.com 1.10,2013-08-30 06:58:00,
2013-08-30 03:13:00,64.9,60.0,29.93,SW,221,12.0,17.0,83,0.00,,,0.00,weatherlink.com 1.10,2013-08-30 07:13:00,
2013-08-30 03:28:00,65.0,60.0,29.93,SW,221,14.0,16.0,85,0.00,,,0.00,weatherlink.com 1.10,2013-08-30 07:28:00,
2013-08-30 03:43:00,64.6,61.0,29.93,SE,140,10.0,14.0,87,0.00,,,0.00,weatherlink.com 1.10,2013-08-30 07:43:00,
2013-08-30 03:58:00,64.3,61.0,29.93,SE,140,8.0,12.0,88,0.00,,,0.00,weatherlink.com 1.10,2013-08-30 07:58:00,
2013-08-30 04:14:00,64.1,61.0,29.93,SE,140,10.0,11.0,90,0.00,,,0.00,weatherlink.com 1.10,2013-08-30 08:14:00,
2013-08-30 04:28:00,64.1,62.0,29.93,South,169,7.0,10.0,91,0.00,,,0.00,weatherlink.com 1.10,2013-08-30 08:28:00,
2013-08-30 04:43:00,64.0,61.0,29.93,SE,131,8.0,12.0,91,0.00,,,0.00,weatherlink.com 1.10,2013-08-30 08:43:00,
2013-08-30 04:58:00,64.1,61.0,29.93,WSW,252,6.0,9.0,90,0.00,,,0.00,weatherlink.com 1.10,2013-08-30 08:58:00,
2013-08-30 05:13:00,64.1,61.0,29.93,SW,221,7.0,8.0,90,0.00,,,0.00,weatherlink.com 1.10,2013-08-30 09:13:00,
2013-08-30 05:28:00,64.2,61.0,29.93,South,172,4.0,7.0,89,0.00,,,0.00,weatherlink.com 1.10,2013-08-30 09:28:00,
2013-08-30 05:43:00,64.3,61.0,29.93,SSE,155,2.0,8.0,89,0.00,,,0.00,weatherlink.com 1.10,2013-08-30 09:43:00,
2013-08-30 05:58:00,64.3,61.0,29.93,SW,218,4.0,8.0,89,0.00,,,0.00,weatherlink.com 1.10,2013-08-30 09:58:00,
2013-08-30 06:13:00,64.3,61.0,29.94,SSW,194,5.0,10.0,89,0.00,,,0.00,weatherlink.com 1.10,2013-08-30 10:13:00,
2013-08-30 06:28:00,64.4,61.0,29.94,South,180,6.0,11.0,89,0.00,,,0.00,weatherlink.com 1.10,2013-08-30 10:28:00,
2013-08-30 06:43:00,64.3,61.0,29.95,SSW,203,6.0,11.0,88,0.00,,,0.00,weatherlink.com 1.10,2013-08-30 10:43:00,
2013-08-30 06:58:00,64.4,61.0,29.95,WSW,238,11.0,13.0,88,0.00,,,0.00,weatherlink.com 1.10,2013-08-30 10:58:00,
2013-08-30 07:13:00,64.4,61.0,29.95,SSW,207,7.0,12.0,88,0.00,,,0.00,weatherlink.com 1.10,2013-08-30 11:13:00,
2013-08-30 07:28:00,64.3,61.0,29.95,South,189,9.0,11.0,88,0.00,,,0.00,weatherlink.com 1.10,2013-08-30 11:28:00,
2013-08-30 07:43:00,64.2,61.0,29.95,SSE,148,6.0,9.0,88,0.00,,,0.00,weatherlink.com 1.10,2013-08-30 11:43:00,
2013-08-30 07:58:00,64.2,60.0,29.95,SSW,200,8.0,13.0,87,0.00,,,0.00,weatherlink.com 1.10,2013-08-30 11:58:00,
2013-08-30 08:13:00,64.4,61.0,29.94,SSW,204,8.0,10.0,87,0.00,,,0.00,weatherlink.com 1.10,2013-08-30 12:13:00,
2013-08-30 08:28:00,64.3,60.0,29.94,SSW,198,4.0,10.0,87,0.00,,,0.00,weatherlink.com 1.10,2013-08-30 12:28:00,
2013-08-30 08:43:00,64.7,60.0,29.94,SSW,192,6.0,15.0,85,0.00,,,0.00,weatherlink.com 1.10,2013-08-30 12:43:00,
2013-08-30 08:58:00,65.1,61.0,29.94,SE,139,9.0,11.0,86,0.00,,,0.00,weatherlink.com 1.10,2013-08-30 12:58:00,
2013-08-30 09:13:00,65.7,61.0,29.94,SSE,148,6.0,12.0,85,0.00,,,0.00,weatherlink.com 1.10,2013-08-30 13:13:00,
2013-08-30 09:28:00,66.6,61.0,29.94,SE,128,5.0,9.0,83,0.00,,,0.00,weatherlink.com 1.10,2013-08-30 13:28:00,
2013-08-30 09:43:00,67.1,61.0,29.94,SSE,150,6.0,10.0,82,0.00,,,0.00,weatherlink.com 1.10,2013-08-30 13:43:00,
2013-08-30 09:58:00,67.5,62.0,29.94,SE,138,10.0,12.0,81,0.00,,,0.00,weatherlink.com 1.10,2013-08-30 13:58:00,
2013-08-30 10:13:00,67.8,62.0,29.94,ESE,113,11.0,14.0,82,0.00,,,0.00,weatherlink.com 1.10,2013-08-30 14:13:00,
2013-08-30 10:28:00,69.4,64.0,29.93,SSW,197,0.0,8.0,82,0.00,,,0.00,weatherlink.com 1.10,2013-08-30 14:28:00,
2013-08-30 10:43:00,69.4,63.0,29.93,WSW,253,6.0,7.0,81,0.00,,,0.00,weatherlink.com 1.10,2013-08-30 14:43:00,
2013-08-30 10:58:00,68.6,63.0,29.93,ESE,118,0.0,5.0,83,0.00,,,0.00,weatherlink.com 1.10,2013-08-30 14:58:00,
2013-08-30 11:13:00,68.6,64.0,29.93,SSW,207,1.0,7.0,85,0.00,,,0.00,weatherlink.com 1.10,2013-08-30 15:13:00,
2013-08-30 11:28:00,68.2,64.0,29.93,WNW,293,1.0,7.0,85,0.00,,,0.00,weatherlink.com 1.10,2013-08-30 15:28:00,
2013-08-30 11:43:00,68.4,64.0,29.92,NW,325,2.0,6.0,85,0.00,,,0.00,weatherlink.com 1.10,2013-08-30 15:43:00,
2013-08-30 11:58:00,69.2,64.0,29.92,WSW,255,1.0,9.0,84,0.00,,,0.00,weatherlink.com 1.10,2013-08-30 15:58:00,
2013-08-30 12:13:00,69.6,64.0,29.91,West,267,5.0,10.0,83,0.00,,,0.00,weatherlink.com 1.10,2013-08-30 16:13:00,
2013-08-30 12:28:00,69.7,64.0,29.90,NW,323,0.0,14.0,82,0.00,,,0.00,weatherlink.com 1.10,2013-08-30 16:28:00,
2013-08-30 12:43:00,69.3,64.0,29.90,NE,46,3.0,14.0,84,0.00,,,0.00,weatherlink.com 1.10,2013-08-30 16:43:00,
2013-08-30 12:58:00,69.4,65.0,29.90,NNW,335,0.0,11.0,85,0.00,,,0.00,weatherlink.com 1.10,2013-08-30 16:58:00,
2013-08-30 13:13:00,69.7,65.0,29.89,NNW,340,1.0,14.0,84,0.00,,,0.00,weatherlink.com 1.10,2013-08-30 17:13:00,
2013-08-30 13:28:00,70.1,65.0,29.88,WSW,257,0.0,10.0,85,0.00,,,0.00,weatherlink.com 1.10,2013-08-30 17:28:00,
2013-08-30 13:43:00,70.3,65.0,29.88,WNW,301,7.0,10.0,84,0.00,,,0.00,weatherlink.com 1.10,2013-08-30 17:43:00,
2013-08-30 13:58:00,70.4,66.0,29.87,NNE,12,0.0,10.0,85,0.00,,,0.00,weatherlink.com 1.10,2013-08-30 17:58:00,
2013-08-30 14:13:00,70.6,66.0,29.87,WSW,243,4.0,8.0,85,0.00,,,0.00,weatherlink.com 1.10,2013-08-30 18:13:00,
2013-08-30 14:28:00,70.7,66.0,29.87,West,273,3.0,8.0,85,0.00,,,0.00,weatherlink.com 1.10,2013-08-30 18:28:00,
2013-08-30 14:44:00,71.0,66.0,29.86,WSW,257,7.0,8.0,85,0.00,,,0.00,weatherlink.com 1.10,2013-08-30 18:44:00,
2013-08-30 14:59:00,70.8,67.0,29.86,NNW,338,2.0,11.0,86,0.00,,,0.00,weatherlink.com 1.10,2013-08-30 18:59:00,
2013-08-30 15:14:00,71.8,68.0,29.86,West,276,7.0,10.0,86,0.00,,,0.00,weatherlink.com 1.10,2013-08-30 19:14:00,
2013-08-30 15:29:00,71.7,67.0,29.86,NE,47,1.0,12.0,86,0.00,,,0.00,weatherlink.com 1.10,2013-08-30 19:29:00,
2013-08-30 15:44:00,71.4,67.0,29.85,West,271,6.0,11.0,87,0.00,,,0.00,weatherlink.com 1.10,2013-08-30 19:44:00,
2013-08-30 15:59:00,71.6,67.0,29.85,ESE,123,2.0,12.0,86,0.00,,,0.00,weatherlink.com 1.10,2013-08-30 19:59:00,
2013-08-30 16:14:00,72.2,68.0,29.84,SSE,165,2.0,11.0,86,0.00,,,0.00,weatherlink.com 1.10,2013-08-30 20:14:00,
2013-08-30 16:29:00,72.2,68.0,29.84,SSW,197,5.0,12.0,86,0.00,,,0.00,weatherlink.com 1.10,2013-08-30 20:29:00,
2013-08-30 16:44:00,72.3,68.0,29.84,West,277,7.0,10.0,86,0.00,,,0.00,weatherlink.com 1.10,2013-08-30 20:44:00,
2013-08-30 16:59:00,72.2,68.0,29.84,SW,222,2.0,8.0,87,0.00,,,0.00,weatherlink.com 1.10,2013-08-30 20:59:00,
2013-08-30 17:14:00,70.5,68.0,29.84,SSW,213,11.0,19.0,90,0.00,,,0.00,weatherlink.com 1.10,2013-08-30 21:14:00,
2013-08-30 17:29:00,70.4,67.0,29.84,SE,136,13.0,24.0,90,0.00,,,0.00,weatherlink.com 1.10,2013-08-30 21:29:00,
2013-08-30 17:44:00,70.3,67.0,29.84,SE,136,18.0,26.0,90,0.00,,,0.00,weatherlink.com 1.10,2013-08-30 21:44:00,
2013-08-30 17:59:00,70.1,67.0,29.84,SSW,194,16.0,22.0,91,0.00,,,0.00,weatherlink.com 1.10,2013-08-30 21:59:00,
2013-08-30 18:14:00,69.9,68.0,29.84,SW,221,15.0,23.0,92,0.00,,,0.00,weatherlink.com 1.10,2013-08-30 22:14:00,
2013-08-30 18:29:00,69.4,67.0,29.84,SW,215,16.0,22.0,93,0.00,,,0.00,weatherlink.com 1.10,2013-08-30 22:29:00,
2013-08-30 18:44:00,69.1,67.0,29.84,SW,221,15.0,22.0,94,0.00,,,0.00,weatherlink.com 1.10,2013-08-30 22:44:00,
2013-08-30 18:59:00,69.1,67.0,29.84,WNW,285,4.0,9.0,93,0.00,,,0.00,weatherlink.com 1.10,2013-08-30 22:59:00,
2013-08-30 19:14:00,68.8,67.0,29.84,WSW,239,2.0,6.0,94,0.00,,,0.00,weatherlink.com 1.10,2013-08-30 23:14:00,
2013-08-30 19:29:00,68.5,67.0,29.84,WNW,301,0.0,7.0,95,0.00,,,0.00,weatherlink.com 1.10,2013-08-30 23:29:00,
2013-08-30 19:44:00,68.4,67.0,29.84,South,169,0.0,5.0,95,0.00,,,0.00,weatherlink.com 1.10,2013-08-30 23:44:00,
2013-08-30 19:59:00,68.4,67.0,29.84,East,99,0.0,8.0,95,0.00,,,0.00,weatherlink.com 1.10,2013-08-30 23:59:00,
2013-08-30 20:14:00,68.4,67.0,29.84,NW,307,0.0,9.0,96,0.00,,,0.00,weatherlink.com 1.10,2013-08-31 00:14:00,
2013-08-30 20:29:00,68.4,67.0,29.84,West,266,2.0,6.0,96,0.00,,,0.00,weatherlink.com 1.10,2013-08-31 00:29:00,
2013-08-30 20:44:00,68.3,67.0,29.84,WSW,255,5.0,5.0,96,0.00,,,0.00,weatherlink.com 1.10,2013-08-31 00:44:00,
2013-08-30 20:59:00,68.2,67.0,29.84,NNW,329,3.0,5.0,96,0.00,,,0.00,weatherlink.com 1.10,2013-08-31 00:59:00,
2013-08-30 21:14:00,68.2,67.0,29.84,ENE,72,0.0,6.0,97,0.00,,,0.00,weatherlink.com 1.10,2013-08-31 01:14:00,
2013-08-30 21:29:00,68.3,68.0,29.84,WSW,249,0.0,6.0,97,0.00,,,0.00,weatherlink.com 1.10,2013-08-31 01:29:00,
2013-08-30 21:44:00,68.2,67.0,29.84,SSE,160,1.0,5.0,97,0.00,,,0.00,weatherlink.com 1.10,2013-08-31 01:44:00,
2013-08-30 21:59:00,68.1,67.0,29.84,SSW,210,0.0,5.0,97,0.00,,,0.00,weatherlink.com 1.10,2013-08-31 01:59:00,
2013-08-30 22:14:00,68.1,67.0,29.84,West,276,1.0,5.0,97,0.00,,,0.00,weatherlink.com 1.10,2013-08-31 02:14:00,
2013-08-30 22:29:00,68.1,67.0,29.84,East,84,0.0,5.0,97,0.00,,,0.00,weatherlink.com 1.10,2013-08-31 02:29:00,
2013-08-30 22:44:00,68.0,67.0,29.84,SE,146,1.0,5.0,97,0.00,,,0.00,weatherlink.com 1.10,2013-08-31 02:44:00,
2013-08-30 22:59:00,67.9,67.0,29.84,WSW,251,3.0,8.0,97,0.00,,,0.00,weatherlink.com 1.10,2013-08-31 02:59:00,
2013-08-30 23:14:00,67.9,67.0,29.84,SSW,194,0.0,4.0,97,0.00,,,0.00,weatherlink.com 1.10,2013-08-31 03:14:00,
2013-08-30 23:29:00,67.9,67.0,29.84,SSW,207,2.0,5.0,97,0.00,,,0.00,weatherlink.com 1.10,2013-08-31 03:29:00,
2013-08-30 23:44:00,68.0,68.0,29.84,SE,128,2.0,5.0,98,0.00,,,0.00,weatherlink.com 1.10,2013-08-31 03:44:00,
2013-08-30 23:59:00,68.1,68.0,29.84,WSW,246,5.0,5.0,98,0.00,,,0.00,weatherlink.com 1.10,2013-08-31 03:59:00,